Time;durP1;ratioP1;P1;durP2;ratioP2;P2;SDS_P1;SDS_P2;PMS_P1;PMS_P2;Temp;Humidity;BMP_temperature;BMP_pressure;BME280_temperature;BME280_humidity;BME280_pressure;Samples;Min_cycle;Max_cycle;Signal;HPM_P1;HPM_P2
2023/02/17 00:00:24;;;;;;;;;;;;;;;20.27;48.16;101445.94;5056364;28;1515;-59
2023/02/17 00:02:55;;;;;;;;;;;;;;;20.26;48.20;101430.09;5057403;28;1851;-60
2023/02/17 00:05:21;;;;;;;;;;;;;;;20.26;48.18;101418.59;5053424;28;2654;-59
2023/02/17 00:07:48;;;;;;;;;;;;;;;20.24;48.24;101415.59;5055749;28;1721;-59
2023/02/17 00:10:14;;;;;;;;;;;;;;;20.25;48.32;101411.34;5056162;28;1769;-59
2023/02/17 00:12:40;;;;;;;;;;;;;;;20.24;48.17;101404.09;5055563;28;1619;-59
2023/02/17 00:15:07;;;;;;;;;;;;;;;20.24;48.24;101406.97;5056698;28;2666;-59
2023/02/17 00:17:33;;;;;;;;;;;;;;;20.24;48.36;101409.84;5053024;28;2882;-59
2023/02/17 00:19:59;;;;;;;;;;;;;;;20.24;48.19;101406.97;5055557;28;2813;-59
2023/02/17 00:22:26;;;;;;;;;;;;;;;20.23;48.07;101411.97;5059675;28;2658;-59
2023/02/17 00:24:52;;;;;;;;;;;;;;;20.23;48.38;101408.34;5055143;28;1733;-59
2023/02/17 00:27:18;;;;;;;;;;;;;;;20.22;48.30;101401.09;5059967;28;1686;-59
2023/02/17 00:29:45;;;;;;;;;;;;;;;20.20;48.38;101398.88;5058417;28;2928;-59
2023/02/17 00:32:11;;;;;;;;;;;;;;;20.21;48.26;101399.63;5056618;28;2879;-59
2023/02/17 00:34:38;;;;;;;;;;;;;;;20.20;48.26;101392.34;5055778;28;2833;-59
2023/02/17 00:37:05;;;;;;;;;;;;;;;20.20;48.38;101386.59;5056610;28;2581;-59
2023/02/17 00:39:31;;;;;;;;;;;;;;;20.19;48.39;101393.75;5053431;28;2887;-60
2023/02/17 00:41:58;;;;;;;;;;;;;;;20.18;48.17;101390.13;5055120;28;2850;-60
2023/02/17 00:44:27;;;;;;;;;;;;;;;20.18;48.24;101384.38;5060370;28;2218;-59
2023/02/17 00:46:54;;;;;;;;;;;;;;;20.17;48.13;101391.50;5051049;28;2845;-59
2023/02/17 00:49:21;;;;;;;;;;;;;;;20.18;48.31;101390.13;5055322;28;2797;-59
2023/02/17 00:51:48;;;;;;;;;;;;;;;20.16;48.14;101377.75;5062743;28;2681;-59
2023/02/17 00:54:14;;;;;;;;;;;;;;;20.16;48.26;101380.63;5058137;28;1962;-59
2023/02/17 00:56:40;;;;;;;;;;;;;;;20.17;48.26;101379.25;5055581;28;2532;-59
2023/02/17 00:59:07;;;;;;;;;;;;;;;20.15;48.18;101376.25;5051756;28;2821;-59
2023/02/17 01:01:33;;;;;;;;;;;;;;;20.14;48.30;101361.16;5052038;28;2732;-59
2023/02/17 01:03:59;;;;;;;;;;;;;;;20.14;48.16;101357.53;5056578;28;3208;-59
2023/02/17 01:06:30;;;;;;;;;;;;;;;20.14;48.27;101354.66;5061978;28;2342;-59
2023/02/17 01:08:56;;;;;;;;;;;;;;;20.14;48.13;101357.53;5054407;28;2638;-59
2023/02/17 01:11:23;;;;;;;;;;;;;;;20.13;48.09;101350.28;5053508;28;2671;-59
2023/02/17 01:13:50;;;;;;;;;;;;;;;20.12;48.07;101357.41;5054008;28;2743;-59
2023/02/17 01:16:20;;;;;;;;;;;;;;;20.11;48.08;101345.16;5054233;28;2492;-59
2023/02/17 01:18:47;;;;;;;;;;;;;;;20.12;48.18;101345.91;5053706;28;2774;-59
2023/02/17 01:21:18;;;;;;;;;;;;;;;20.12;47.95;101334.41;5054968;28;2701;-59
2023/02/17 01:23:44;;;;;;;;;;;;;;;20.11;48.16;101332.91;5055135;28;2633;-59
2023/02/17 01:26:14;;;;;;;;;;;;;;;20.10;48.04;101335.03;5054497;28;2788;-59
2023/02/17 01:28:40;;;;;;;;;;;;;;;20.09;48.12;101325.69;5051612;28;2783;-58
2023/02/17 01:31:07;;;;;;;;;;;;;;;20.09;47.99;101322.81;5054911;28;2373;-59
2023/02/17 01:33:33;;;;;;;;;;;;;;;20.09;48.14;101314.19;5054424;28;2921;-59
2023/02/17 01:36:00;;;;;;;;;;;;;;;20.08;48.10;101324.16;5050889;28;2815;-59
2023/02/17 01:38:27;;;;;;;;;;;;;;;20.07;48.03;101322.69;5054879;28;1607;-59
2023/02/17 01:40:54;;;;;;;;;;;;;;;20.07;48.04;101314.06;5049989;28;2667;-59
2023/02/17 01:43:20;;;;;;;;;;;;;;;20.08;48.04;101306.19;5055244;28;1622;-59
2023/02/17 01:45:53;;;;;;;;;;;;;;;20.06;47.93;101301.06;5053377;28;2824;-59
2023/02/17 01:48:20;;;;;;;;;;;;;;;20.06;48.11;101303.94;5056517;28;1665;-59
2023/02/17 01:50:51;;;;;;;;;;;;;;;20.05;48.07;101308.19;5048879;28;2870;-59
2023/02/17 01:53:19;;;;;;;;;;;;;;;20.05;47.89;101299.56;5066522;28;2821;-59
2023/02/17 01:55:46;;;;;;;;;;;;;;;20.06;48.08;101303.19;5055061;28;2980;-59
2023/02/17 01:58:13;;;;;;;;;;;;;;;20.06;48.10;101291.69;5035954;28;2722;-59
2023/02/17 02:00:39;;;;;;;;;;;;;;;20.04;47.99;101292.34;5037412;28;2461;-59
2023/02/17 02:03:05;;;;;;;;;;;;;;;20.03;48.12;101285.09;5053491;28;2731;-59
2023/02/17 02:05:32;;;;;;;;;;;;;;;20.04;48.03;101283.72;5058213;28;2859;-59
2023/02/17 02:07:58;;;;;;;;;;;;;;;20.03;48.12;101287.97;5050556;28;2870;-59
2023/02/17 02:10:24;;;;;;;;;;;;;;;20.03;47.83;101282.22;5052224;28;3019;-59
2023/02/17 02:12:51;;;;;;;;;;;;;;;20.02;48.06;101265.59;5053648;28;2782;-59
2023/02/17 02:15:18;;;;;;;;;;;;;;;20.00;48.17;101272.00;5060524;28;1906;-59
2023/02/17 02:18:03;;;;;;;;;;;;;;;19.99;48.01;101259.00;5050393;28;2941;-60
2023/02/17 02:20:56;;;;;;;;;;;;;;;19.99;48.00;101247.50;5049606;28;2755;-59
2023/02/17 02:23:34;;;;;;;;;;;;;;;19.99;48.04;101241.75;5031993;28;2731;-59
2023/02/17 02:26:09;;;;;;;;;;;;;;;19.99;48.22;101241.00;5050306;28;2898;-59
2023/02/17 02:28:43;;;;;;;;;;;;;;;19.99;48.11;101235.25;5047406;28;3069;-59
2023/02/17 02:31:29;;;;;;;;;;;;;;;19.98;48.13;101228.75;5049418;28;2914;-59
2023/02/17 02:33:55;;;;;;;;;;;;;;;19.98;48.02;101223.00;5047813;28;3075;-59
2023/02/17 02:36:29;;;;;;;;;;;;;;;19.98;47.93;101216.53;5053434;28;2819;-59
2023/02/17 02:39:15;;;;;;;;;;;;;;;19.97;48.10;101218.63;5057455;28;1613;-59
2023/02/17 02:41:43;;;;;;;;;;;;;;;19.97;48.04;101227.25;5048699;28;2643;-59
2023/02/17 02:44:12;;;;;;;;;;;;;;;19.95;48.13;101224.28;5052744;28;2712;-59
2023/02/17 02:46:38;;;;;;;;;;;;;;;19.96;48.13;101214.28;5051590;28;1724;-59
2023/02/17 02:49:05;;;;;;;;;;;;;;;19.95;47.94;101218.56;5051872;28;1606;-59
2023/02/17 02:51:38;;;;;;;;;;;;;;;19.95;48.11;101207.06;5050179;28;2689;-58
2023/02/17 02:54:30;;;;;;;;;;;;;;;19.94;48.15;101205.53;5052750;28;2379;-59
2023/02/17 06:28:54;;;;;;;;;;;;;;;20.39;50.68;101023.09;5218097;23;4314;-69
2023/02/17 06:31:21;;;;;;;;;;;;;;;20.42;51.16;101016.03;4952670;28;3172;-81
2023/02/17 06:33:47;;;;;;;;;;;;;;;20.43;50.43;101018.28;4928351;28;4435;-69
2023/02/17 06:36:14;;;;;;;;;;;;;;;20.45;50.45;101018.34;4951691;28;3147;-70
2023/02/17 06:38:40;;;;;;;;;;;;;;;20.38;50.30;101010.09;4954425;28;2976;-70
2023/02/17 06:41:06;;;;;;;;;;;;;;;20.34;50.36;101015.63;4954855;28;2909;-70
2023/02/17 06:43:33;;;;;;;;;;;;;;;20.32;50.40;101013.41;4958443;28;3143;-70
2023/02/17 06:45:59;;;;;;;;;;;;;;;20.29;50.50;101011.81;4961779;28;2966;-68
2023/02/17 06:48:26;;;;;;;;;;;;;;;20.29;50.67;101014.69;4958584;28;3059;-67
2023/02/17 06:50:52;;;;;;;;;;;;;;;20.28;50.62;101002.44;4965224;28;1698;-69
2023/02/17 06:53:18;;;;;;;;;;;;;;;20.26;50.18;101010.22;4958124;28;3054;-69
2023/02/17 06:55:45;;;;;;;;;;;;;;;20.07;49.57;101006.44;4956982;28;2956;-69
2023/02/17 06:58:11;;;;;;;;;;;;;;;20.05;49.08;101014.25;4961551;28;2945;-70
2023/02/17 07:00:37;;;;;;;;;;;;;;;19.91;48.61;101008.50;4962537;28;3084;-69
2023/02/17 07:03:04;;;;;;;;;;;;;;;19.80;48.26;101012.25;4937097;28;2944;-68
2023/02/17 07:05:30;;;;;;;;;;;;;;;19.22;47.01;101002.78;4957313;28;3538;-67
2023/02/17 07:07:57;;;;;;;;;;;;;;;18.66;47.43;100999.00;4963464;28;2828;-67
2023/02/17 07:10:23;;;;;;;;;;;;;;;18.35;47.59;100993.72;4962199;28;3051;-68
2023/02/17 07:12:50;;;;;;;;;;;;;;;18.68;48.10;100993.38;4965814;28;3347;-67
2023/02/17 07:15:16;;;;;;;;;;;;;;;19.25;47.12;100990.75;4965419;28;2878;-68
2023/02/17 07:17:42;;;;;;;;;;;;;;;19.63;46.82;100985.53;4965919;28;2891;-68
2023/02/17 07:20:09;;;;;;;;;;;;;;;19.84;46.99;100995.97;4966359;28;2890;-66
2023/02/17 07:22:35;;;;;;;;;;;;;;;19.92;47.20;100989.88;4961579;28;3023;-68
2023/02/17 07:25:02;;;;;;;;;;;;;;;19.98;47.11;100992.31;4967618;28;2854;-67
2023/02/17 07:27:28;;;;;;;;;;;;;;;20.01;47.38;100994.66;4942745;28;3324;-68
2023/02/17 07:29:54;;;;;;;;;;;;;;;20.05;47.32;100991.97;4930439;28;2931;-67
2023/02/17 07:32:21;;;;;;;;;;;;;;;20.08;47.24;100993.56;4931935;29;3014;-67
2023/02/17 07:34:47;;;;;;;;;;;;;;;20.12;47.49;100984.41;4938964;29;2644;-67
2023/02/17 07:37:14;;;;;;;;;;;;;;;20.13;47.71;100988.00;4936440;29;2681;-68
2023/02/17 07:39:40;;;;;;;;;;;;;;;20.13;47.78;100977.25;4932537;29;3050;-68
2023/02/17 07:42:06;;;;;;;;;;;;;;;20.13;47.77;100967.88;4939184;29;2880;-68
2023/02/17 07:44:33;;;;;;;;;;;;;;;20.16;47.87;100973.09;4941086;29;1714;-68
2023/02/17 07:46:59;;;;;;;;;;;;;;;20.16;48.00;100957.97;4939201;29;2101;-69
2023/02/17 07:49:25;;;;;;;;;;;;;;;20.16;48.12;100966.59;4938897;29;4378;-70
2023/02/17 07:51:52;;;;;;;;;;;;;;;20.31;47.96;100960.16;4935491;28;3932;-71
2023/02/17 07:54:18;;;;;;;;;;;;;;;20.35;48.50;100966.09;4938149;29;2946;-71
2023/02/17 07:56:44;;;;;;;;;;;;;;;20.39;48.64;100966.31;4941959;29;2894;-71
2023/02/17 07:59:11;;;;;;;;;;;;;;;20.40;48.56;100959.16;4940320;29;2911;-72
2023/02/17 08:01:37;;;;;;;;;;;;;;;20.38;48.51;100958.31;4939644;29;3040;-70
2023/02/17 08:04:03;;;;;;;;;;;;;;;20.34;48.66;100964.63;4936887;29;2410;-70
2023/02/17 08:06:30;;;;;;;;;;;;;;;20.27;48.87;100968.56;4940477;29;1826;-70
2023/02/17 08:14:27;;;;;;;;;;;;;;;20.89;48.45;100955.72;4938062;28;3066;-72
2023/02/17 08:16:53;;;;;;;;;;;;;;;20.89;48.47;100958.59;4940889;28;2860;-73
2023/02/17 08:19:20;;;;;;;;;;;;;;;20.91;48.44;100955.81;4936601;28;3339;-70
2023/02/17 08:21:46;;;;;;;;;;;;;;;20.88;48.21;100959.97;4933491;28;3088;-70
2023/02/17 08:24:14;;;;;;;;;;;;;;;20.91;48.32;100967.31;4932035;28;2824;-69
2023/02/17 08:26:40;;;;;;;;;;;;;;;20.95;48.22;100960.25;4937483;28;1949;-69
2023/02/17 08:29:06;;;;;;;;;;;;;;;21.02;48.15;100962.00;4938825;29;1727;-71
2023/02/17 08:31:33;;;;;;;;;;;;;;;21.07;47.99;100955.81;4934393;28;2971;-69
2023/02/17 08:34:00;;;;;;;;;;;;;;;21.13;48.03;100952.44;4935078;28;3024;-70
2023/02/17 08:36:26;;;;;;;;;;;;;;;21.17;47.92;100952.63;4934977;28;3119;-71
2023/02/17 08:38:53;;;;;;;;;;;;;;;21.11;47.91;100952.34;4936410;28;2951;-69
2023/02/17 08:41:21;;;;;;;;;;;;;;;21.10;48.28;100948.00;4928305;28;3098;-67
2023/02/17 08:43:47;;;;;;;;;;;;;;;21.11;47.86;100955.22;4935882;28;3049;-70
2023/02/17 08:46:13;;;;;;;;;;;;;;;21.06;47.94;100947.81;4939655;29;1806;-69
2023/02/17 08:48:40;;;;;;;;;;;;;;;20.97;48.07;100940.94;4938536;29;1691;-68
2023/02/17 08:51:06;;;;;;;;;;;;;;;21.08;48.42;100939.25;4938838;28;2693;-67
2023/02/17 08:53:33;;;;;;;;;;;;;;;21.07;48.21;100932.00;4935925;28;3015;-66
2023/02/17 08:55:59;;;;;;;;;;;;;;;20.99;48.35;100920.13;4935967;28;3118;-68
2023/02/17 08:58:25;;;;;;;;;;;;;;;20.90;48.69;100921.91;4936504;28;3005;-67
2023/02/17 09:00:52;;;;;;;;;;;;;;;20.86;48.54;100905.19;4939131;29;1571;-67
2023/02/17 09:03:18;;;;;;;;;;;;;;;20.88;48.62;100898.78;4937858;29;1862;-67
2023/02/17 09:05:45;;;;;;;;;;;;;;;20.90;48.46;100884.50;4937761;28;3046;-67
2023/02/17 09:08:11;;;;;;;;;;;;;;;20.90;48.48;100890.97;4936978;28;3060;-69
2023/02/17 09:10:37;;;;;;;;;;;;;;;20.93;48.79;100883.91;4938790;29;1679;-70
2023/02/17 09:13:04;;;;;;;;;;;;;;;20.87;48.55;100886.53;4938882;29;1577;-70
2023/02/17 09:15:30;;;;;;;;;;;;;;;20.89;48.39;100883.00;4937178;28;2472;-69
2023/02/17 09:17:57;;;;;;;;;;;;;;;20.95;48.74;100873.91;4937181;28;2820;-68
2023/02/17 09:20:23;;;;;;;;;;;;;;;20.83;48.44;100871.97;4933870;28;3174;-69
2023/02/17 09:22:50;;;;;;;;;;;;;;;20.85;48.73;100866.28;4934957;28;2923;-71
2023/02/17 09:25:17;;;;;;;;;;;;;;;20.75;48.61;100854.31;4934973;28;3013;-66
2023/02/17 09:27:44;;;;;;;;;;;;;;;20.72;48.96;100852.75;4930140;28;3228;-69
2023/02/17 09:30:10;;;;;;;;;;;;;;;20.76;48.98;100852.94;4931867;29;2856;-68
2023/02/17 09:32:39;;;;;;;;;;;;;;;20.74;48.77;100849.22;4935252;29;2918;-68
2023/02/17 09:35:06;;;;;;;;;;;;;;;20.65;48.91;100845.25;4934390;29;3022;-69
2023/02/17 09:37:32;;;;;;;;;;;;;;;20.63;49.12;100833.63;4932142;28;3090;-72
2023/02/17 09:39:59;;;;;;;;;;;;;;;20.68;49.11;100835.31;4930547;28;3173;-69
2023/02/17 09:42:25;;;;;;;;;;;;;;;20.77;49.09;100831.38;4933383;29;2876;-69
2023/02/17 09:44:58;;;;;;;;;;;;;;;20.68;49.14;100832.44;4929621;28;3325;-71
2023/02/17 09:47:25;;;;;;;;;;;;;;;20.72;48.96;100832.59;4931584;29;3492;-70
2023/02/17 09:49:53;;;;;;;;;;;;;;;20.71;48.99;100822.50;4932546;28;3133;-67
2023/02/17 09:52:25;;;;;;;;;;;;;;;20.65;49.02;100813.59;4925601;29;3523;-68
2023/02/17 09:54:59;;;;;;;;;;;;;;;20.64;49.19;100815.75;4933624;28;2887;-68
2023/02/17 09:57:27;;;;;;;;;;;;;;;20.65;49.13;100807.84;4935736;29;2800;-67
2023/02/17 09:59:57;;;;;;;;;;;;;;;20.64;49.11;100812.13;4930483;29;3091;-68
2023/02/17 10:02:26;;;;;;;;;;;;;;;20.64;49.19;100800.63;4938446;29;1711;-67
2023/02/17 10:04:52;;;;;;;;;;;;;;;20.64;48.92;100801.34;4932121;28;2956;-68
2023/02/17 10:07:20;;;;;;;;;;;;;;;20.62;49.26;100797.66;4934228;29;3042;-68
2023/02/17 10:09:48;;;;;;;;;;;;;;;20.60;49.08;100801.16;4934371;28;2405;-68
2023/02/17 10:12:16;;;;;;;;;;;;;;;20.60;49.08;100803.31;4937846;29;1615;-68
2023/02/17 10:14:59;;;;;;;;;;;;;;;20.61;48.92;100793.28;4935109;28;1645;-68
2023/02/17 10:17:26;;;;;;;;;;;;;;;20.62;49.04;100781.13;4934728;29;2807;-68
2023/02/17 10:20:04;;;;;;;;;;;;;;;20.62;48.83;100789.75;4935115;29;3010;-68
2023/02/17 10:22:30;;;;;;;;;;;;;;;20.63;48.86;100782.59;4932348;29;2883;-68
2023/02/17 10:24:57;;;;;;;;;;;;;;;20.63;48.76;100781.84;4936721;29;2942;-68
2023/02/17 10:27:28;;;;;;;;;;;;;;;20.63;48.83;100761.72;4931629;29;3017;-67
2023/02/17 10:30:14;;;;;;;;;;;;;;;20.63;49.00;100776.09;4935699;29;2880;-68
2023/02/17 10:32:46;;;;;;;;;;;;;;;20.63;48.82;100764.59;4934627;29;1735;-68
2023/02/17 10:35:13;;;;;;;;;;;;;;;20.62;48.88;100760.97;4934525;28;2943;-68
2023/02/17 10:37:39;;;;;;;;;;;;;;;20.61;49.08;100755.88;4935051;29;2711;-68
2023/02/17 10:40:11;;;;;;;;;;;;;;;20.61;49.15;100755.88;4929400;29;2930;-68
2023/02/17 10:42:37;;;;;;;;;;;;;;;20.60;49.01;100746.50;4937891;29;1834;-68
2023/02/17 10:45:11;;;;;;;;;;;;;;;20.57;48.92;100744.94;4931958;28;3332;-69
2023/02/17 10:47:38;;;;;;;;;;;;;;;19.80;49.33;100742.91;4932950;28;2929;-74
2023/02/17 10:50:13;;;;;;;;;;;;;;;19.98;49.16;100733.66;4929324;28;3045;-67
2023/02/17 10:52:40;;;;;;;;;;;;;;;20.14;48.88;100739.41;4929144;29;3021;-68
2023/02/17 10:55:32;;;;;;;;;;;;;;;20.25;48.66;100739.22;4929587;28;2923;-68
2023/02/17 10:58:26;;;;;;;;;;;;;;;20.36;48.69;100714.50;4860588;29;2854;-67
2023/02/17 11:00:53;;;;;;;;;;;;;;;20.42;48.48;100711.91;4863890;29;3056;-66
2023/02/17 11:03:19;;;;;;;;;;;;;;;20.47;48.40;100696.28;4863977;29;2944;-67
2023/02/17 11:05:58;;;;;;;;;;;;;;;20.51;48.58;100690.72;4865860;29;2976;-69
2023/02/17 11:08:32;;;;;;;;;;;;;;;20.53;48.73;100680.72;4865436;29;3100;-67
2023/02/17 11:11:06;;;;;;;;;;;;;;;20.54;48.73;100667.78;4865696;29;3242;-67
2023/02/17 11:13:33;;;;;;;;;;;;;;;20.55;49.02;100655.66;4869752;29;2896;-67
2023/02/17 11:16:00;;;;;;;;;;;;;;;20.56;48.89;100656.38;4862781;29;3095;-66
2023/02/17 11:18:27;;;;;;;;;;;;;;;20.56;48.82;100653.50;4867615;29;2757;-66
2023/02/17 11:21:04;;;;;;;;;;;;;;;20.56;48.84;100644.88;4863612;29;3082;-66
2023/02/17 11:23:30;;;;;;;;;;;;;;;20.57;49.17;100637.75;4865248;29;3059;-66
2023/02/17 11:25:58;;;;;;;;;;;;;;;20.56;49.32;100644.88;4861857;29;3034;-66
2023/02/17 11:28:25;;;;;;;;;;;;;;;20.48;49.29;100640.25;4867691;29;2796;-65
2023/02/17 11:30:55;;;;;;;;;;;;;;;20.41;49.12;100624.16;4865416;29;2969;-66
2023/02/17 11:33:32;;;;;;;;;;;;;;;20.46;49.42;100625.06;4875470;29;3076;-66
2023/02/17 11:35:58;;;;;;;;;;;;;;;20.48;49.25;100617.25;4932512;29;3008;-66
2023/02/17 11:38:26;;;;;;;;;;;;;;;20.47;49.25;100621.50;4933875;29;2906;-63
2023/02/17 11:40:53;;;;;;;;;;;;;;;20.43;49.24;100606.97;4930019;29;4792;-64
2023/02/17 11:43:20;;;;;;;;;;;;;;;20.43;49.20;100601.22;4933539;28;3153;-63
2023/02/17 11:45:48;;;;;;;;;;;;;;;20.02;49.68;100596.63;4932543;29;3113;-66
2023/02/17 11:48:24;;;;;;;;;;;;;;;20.15;49.32;100585.63;4937491;29;2928;-71
2023/02/17 11:50:54;;;;;;;;;;;;;;;20.17;49.81;100582.84;4934947;28;2952;-66
2023/02/17 11:53:36;;;;;;;;;;;;;;;20.32;49.13;100566.94;4935828;29;2937;-69
2023/02/17 11:56:02;;;;;;;;;;;;;;;19.97;49.58;100551.09;4932429;28;3469;-67
2023/02/17 11:58:44;;;;;;;;;;;;;;;20.16;49.10;100541.09;4935096;28;2933;-68
2023/02/17 12:01:20;;;;;;;;;;;;;;;20.32;48.99;100538.94;4938645;28;3397;-68
2023/02/17 12:04:02;;;;;;;;;;;;;;;20.37;49.22;100537.69;4926161;29;3597;-71
2023/02/17 12:06:54;;;;;;;;;;;;;;;20.41;48.99;100542.84;4935223;28;3071;-71
2023/02/17 12:09:29;;;;;;;;;;;;;;;20.40;49.20;100541.38;4913747;29;2929;-70
2023/02/17 12:12:00;;;;;;;;;;;;;;;20.40;49.16;100550.75;4934291;28;2938;-67
2023/02/17 12:14:48;;;;;;;;;;;;;;;20.40;49.30;100536.38;4934610;29;2966;-68
2023/02/17 12:17:38;;;;;;;;;;;;;;;20.43;50.38;100537.97;4924075;29;3014;-65
2023/02/17 12:20:20;;;;;;;;;;;;;;;20.43;49.60;100526.44;4911341;28;2970;-66
2023/02/17 12:23:05;;;;;;;;;;;;;;;20.36;49.53;100524.69;4930192;28;3089;-68
2023/02/17 12:25:32;;;;;;;;;;;;;;;20.39;49.63;100516.91;4935120;29;2748;-66
2023/02/17 12:27:58;;;;;;;;;;;;;;;20.41;49.53;100502.59;4937107;28;2843;-68
2023/02/17 12:30:32;;;;;;;;;;;;;;;20.39;49.65;100486.03;4938521;28;3563;-66
2023/02/17 12:33:17;;;;;;;;;;;;;;;20.40;49.48;100495.38;4929694;28;3020;-68
2023/02/17 12:35:45;;;;;;;;;;;;;;;20.39;49.61;100488.16;4933697;28;3473;-65
2023/02/17 12:38:15;;;;;;;;;;;;;;;20.35;49.68;100474.34;4935760;28;3309;-68
2023/02/17 12:40:43;;;;;;;;;;;;;;;20.33;49.58;100473.53;4936341;28;3007;-67
2023/02/17 12:43:16;;;;;;;;;;;;;;;20.32;49.59;100472.03;4940607;29;1702;-67
2023/02/17 12:45:43;;;;;;;;;;;;;;;20.32;49.44;100461.28;4938202;29;1616;-67
2023/02/17 12:48:12;;;;;;;;;;;;;;;20.32;49.36;100472.78;4939053;29;1555;-67
2023/02/17 12:50:41;;;;;;;;;;;;;;;20.32;49.49;100461.28;4928646;29;1664;-68
2023/02/17 12:53:11;;;;;;;;;;;;;;;20.33;49.37;100473.53;4937683;28;2801;-67
2023/02/17 12:55:47;;;;;;;;;;;;;;;20.33;49.33;100474.25;4938214;29;1970;-67
2023/02/17 12:58:15;;;;;;;;;;;;;;;20.33;49.45;100462.75;4936415;28;1590;-67
2023/02/17 13:00:42;;;;;;;;;;;;;;;20.32;49.28;100472.78;4939797;28;1592;-68
2023/02/17 13:03:09;;;;;;;;;;;;;;;20.31;49.35;100482.81;4939650;29;1592;-67
2023/02/17 13:05:39;;;;;;;;;;;;;;;20.33;49.59;100479.28;4938114;28;1630;-67
2023/02/17 13:08:16;;;;;;;;;;;;;;;20.33;49.60;100477.13;4937800;29;1620;-67
2023/02/17 13:10:42;;;;;;;;;;;;;;;20.34;49.80;100464.25;4939577;29;1758;-67
2023/02/17 13:13:25;;;;;;;;;;;;;;;20.31;49.80;100459.81;4936985;28;1631;-67
2023/02/17 13:16:07;;;;;;;;;;;;;;;20.33;49.74;100456.28;4938076;29;1958;-67
2023/02/17 13:18:35;;;;;;;;;;;;;;;20.32;49.98;100461.28;4936711;28;1614;-64
2023/02/17 13:21:26;;;;;;;;;;;;;;;20.32;49.71;100469.16;4922694;29;1808;-65
2023/02/17 13:24:00;;;;;;;;;;;;;;;20.25;49.88;100465.31;4940772;29;1724;-65
2023/02/17 13:26:30;;;;;;;;;;;;;;;20.29;50.00;100460.47;4935701;29;1644;-65
2023/02/17 13:29:15;;;;;;;;;;;;;;;20.28;50.00;100458.25;4939825;28;1627;-65
2023/02/17 13:31:43;;;;;;;;;;;;;;;20.30;50.00;100458.34;4940979;29;1588;-65
2023/02/17 13:34:10;;;;;;;;;;;;;;;20.32;49.88;100444.03;4939369;29;2578;-66
2023/02/17 13:36:36;;;;;;;;;;;;;;;20.30;49.93;100450.44;4936457;29;1927;-66
2023/02/17 13:39:22;;;;;;;;;;;;;;;20.32;49.78;100438.28;4938540;29;1591;-65
2023/02/17 13:41:48;;;;;;;;;;;;;;;20.33;49.68;100441.91;4940380;29;1818;-65
2023/02/17 13:44:27;;;;;;;;;;;;;;;20.32;49.94;100432.53;4935923;29;1563;-65
2023/02/17 13:46:55;;;;;;;;;;;;;;;20.31;50.01;100436.81;4937716;29;1838;-65
2023/02/17 13:49:23;;;;;;;;;;;;;;;20.32;49.90;100437.53;4935103;29;1860;-66
2023/02/17 13:51:50;;;;;;;;;;;;;;;20.32;50.00;100437.53;4938569;29;1633;-65
2023/02/17 13:54:18;;;;;;;;;;;;;;;20.29;49.93;100433.84;4938018;28;2099;-66
2023/02/17 13:56:48;;;;;;;;;;;;;;;20.29;49.93;100454.72;4940256;29;1976;-71
2023/02/17 13:59:18;;;;;;;;;;;;;;;20.29;49.93;100445.34;4940849;29;1595;-68
2023/02/17 14:01:44;;;;;;;;;;;;;;;20.28;50.06;100450.34;4936654;29;1862;-70
2023/02/17 14:04:20;;;;;;;;;;;;;;;20.21;49.93;100459.41;4935884;29;3580;-67
2023/02/17 14:06:48;;;;;;;;;;;;;;;19.99;50.25;100454.19;4939211;29;1581;-67
2023/02/17 14:09:25;;;;;;;;;;;;;;;20.01;49.99;100456.44;4937856;29;2929;-68
2023/02/17 14:11:51;;;;;;;;;;;;;;;20.15;50.09;100459.16;4925879;28;3115;-71
2023/02/17 14:14:17;;;;;;;;;;;;;;;20.24;49.59;100452.34;4931531;28;3084;-65
2023/02/17 14:16:44;;;;;;;;;;;;;;;20.32;49.61;100467.03;4920214;29;3573;-69
2023/02/17 14:19:14;;;;;;;;;;;;;;;20.34;49.47;100458.50;4925889;28;3503;-68
2023/02/17 14:21:44;;;;;;;;;;;;;;;20.38;49.56;100470.16;4930593;29;2991;-67
2023/02/17 14:24:24;;;;;;;;;;;;;;;20.35;49.87;100471.47;4931277;29;2857;-67
2023/02/17 14:26:53;;;;;;;;;;;;;;;20.36;49.74;100458.56;4930772;29;2984;-67
2023/02/17 14:29:20;;;;;;;;;;;;;;;20.36;49.98;100472.22;4934653;29;2715;-67
2023/02/17 14:31:47;;;;;;;;;;;;;;;20.38;49.66;100461.53;4926951;28;2953;-67
2023/02/17 14:34:24;;;;;;;;;;;;;;;20.38;49.62;100481.66;4920969;29;2771;-67
2023/02/17 14:36:50;;;;;;;;;;;;;;;20.38;49.74;100475.91;4930953;28;2790;-68
2023/02/17 14:39:17;;;;;;;;;;;;;;;20.40;49.52;100484.63;4924755;28;2672;-67
2023/02/17 14:41:43;;;;;;;;;;;;;;;20.39;49.59;100488.91;4927883;29;2898;-68
2023/02/17 14:44:09;;;;;;;;;;;;;;;20.38;49.99;100498.91;4936424;29;1553;-68
2023/02/17 14:46:36;;;;;;;;;;;;;;;20.36;49.87;100501.69;4933654;29;2894;-67
2023/02/17 14:49:02;;;;;;;;;;;;;;;20.37;49.89;100483.06;4925547;29;2214;-67
2023/02/17 14:51:33;;;;;;;;;;;;;;;20.36;49.72;100498.81;4924687;29;2825;-68
2023/02/17 14:54:10;;;;;;;;;;;;;;;20.37;49.75;100503.19;4926808;29;2667;-67
2023/02/17 14:56:37;;;;;;;;;;;;;;;20.35;49.84;100482.97;4921494;29;3019;-68
2023/02/17 14:59:03;;;;;;;;;;;;;;;20.37;49.56;100491.69;4928226;28;2435;-68
2023/02/17 15:01:29;;;;;;;;;;;;;;;20.38;49.70;100498.91;4928764;28;2289;-68
2023/02/17 15:03:59;;;;;;;;;;;;;;;20.36;49.94;100495.94;4932724;29;2794;-67
2023/02/17 15:06:26;;;;;;;;;;;;;;;20.37;49.60;100497.44;4927237;29;2946;-68
2023/02/17 15:08:57;;;;;;;;;;;;;;;20.36;49.73;100493.06;4930047;28;2998;-67
2023/02/17 15:11:30;;;;;;;;;;;;;;;20.34;49.73;100492.25;4930242;29;2901;-67
2023/02/17 15:13:56;;;;;;;;;;;;;;;20.35;49.64;100500.22;4931411;29;3021;-68
2023/02/17 15:16:23;;;;;;;;;;;;;;;20.35;49.68;100482.25;4928101;29;2738;-67
2023/02/17 15:18:49;;;;;;;;;;;;;;;20.33;49.74;100479.28;4933186;28;2396;-66
2023/02/17 15:21:34;;;;;;;;;;;;;;;20.33;49.96;100479.28;4931411;29;2892;-67
2023/02/17 15:24:00;;;;;;;;;;;;;;;20.32;50.11;100472.78;4933414;29;3010;-67
2023/02/17 15:26:27;;;;;;;;;;;;;;;20.31;50.04;100465.56;4933405;28;2745;-67
2023/02/17 15:28:55;;;;;;;;;;;;;;;20.28;50.12;100473.38;4935448;28;3181;-67
2023/02/17 15:31:22;;;;;;;;;;;;;;;20.28;50.08;100467.63;4935816;29;2925;-67
2023/02/17 15:33:58;;;;;;;;;;;;;;;20.26;50.20;100458.91;4935964;28;2842;-67
2023/02/17 15:36:24;;;;;;;;;;;;;;;20.28;50.13;100461.84;4927293;28;2910;-67
2023/02/17 15:38:51;;;;;;;;;;;;;;;20.27;50.13;100457.53;4933490;28;2672;-67
2023/02/17 15:41:19;;;;;;;;;;;;;;;20.30;50.15;100472.72;4932167;28;2831;-66
2023/02/17 15:43:46;;;;;;;;;;;;;;;20.30;49.97;100464.81;4933367;29;2729;-67
2023/02/17 15:46:12;;;;;;;;;;;;;;;20.31;50.21;100459.81;4933663;29;2668;-67
2023/02/17 15:48:39;;;;;;;;;;;;;;;20.33;49.93;100447.66;4935397;29;2653;-67
2023/02/17 15:51:05;;;;;;;;;;;;;;;20.36;49.76;100454.94;4934024;29;2803;-67
2023/02/17 15:53:33;;;;;;;;;;;;;;;20.36;49.89;100449.94;4932407;28;2714;-67
2023/02/17 15:56:00;;;;;;;;;;;;;;;20.35;49.81;100454.22;4934860;28;2787;-67
2023/02/17 15:58:26;;;;;;;;;;;;;;;20.36;50.04;100444.19;4921286;29;2727;-67
2023/02/17 16:00:54;;;;;;;;;;;;;;;20.38;49.75;100446.41;4917229;29;2799;-67
2023/02/17 16:03:21;;;;;;;;;;;;;;;20.38;50.10;100435.63;4934544;28;2730;-67
2023/02/17 16:05:47;;;;;;;;;;;;;;;20.35;50.02;100436.97;4934638;28;2565;-67
2023/02/17 16:08:13;;;;;;;;;;;;;;;20.34;49.88;100424.00;4929398;28;2812;-67
2023/02/17 16:10:44;;;;;;;;;;;;;;;20.35;50.34;100430.47;4932355;28;2878;-67
2023/02/17 16:13:11;;;;;;;;;;;;;;;20.34;50.13;100429.75;4934484;28;2842;-67
2023/02/17 16:15:37;;;;;;;;;;;;;;;20.35;49.95;100442.72;4929374;28;2702;-67
2023/02/17 16:18:04;;;;;;;;;;;;;;;20.33;50.06;100445.50;4932924;28;2931;-65
2023/02/17 16:20:33;;;;;;;;;;;;;;;20.33;50.03;100445.50;4933103;28;2870;-67
2023/02/17 16:23:00;;;;;;;;;;;;;;;20.33;50.13;100448.38;4929354;28;2685;-67
2023/02/17 16:25:26;;;;;;;;;;;;;;;20.34;49.85;100452.75;4933833;28;2903;-67
2023/02/17 16:27:53;;;;;;;;;;;;;;;20.33;50.04;100462.75;4924395;28;3791;-65
2023/02/17 16:30:20;;;;;;;;;;;;;;;20.32;50.02;100464.19;4926533;28;2901;-65
2023/02/17 16:32:47;;;;;;;;;;;;;;;20.35;50.41;100468.59;4931319;28;2352;-67
2023/02/17 16:35:14;;;;;;;;;;;;;;;20.35;50.32;100488.72;4929317;28;2874;-67